createdAt,value
2019-04-05T00:03:19.908Z,-2.49
2019-04-05T00:05:46.139Z,-2.52
2019-04-05T00:08:12.384Z,-2.55
2019-04-05T00:10:38.610Z,-2.59
2019-04-05T00:13:04.855Z,-2.66
2019-04-05T00:15:31.089Z,-2.69
2019-04-05T00:17:57.456Z,-2.69
2019-04-05T00:20:23.705Z,-2.66
2019-04-05T00:22:49.947Z,-2.63
2019-04-05T00:25:16.177Z,-2.62
2019-04-05T00:27:42.424Z,-2.64
2019-04-05T00:33:22.266Z,-2.67
2019-04-05T00:35:48.509Z,-2.70
2019-04-05T00:38:14.783Z,-2.75
2019-04-05T00:40:41.018Z,-2.77
2019-04-05T00:43:07.260Z,-2.81
2019-04-05T00:45:33.493Z,-2.89
2019-04-05T00:47:59.761Z,-2.94
2019-04-05T00:50:25.985Z,-2.99
2019-04-05T00:52:52.333Z,-3.04
2019-04-05T00:55:18.565Z,-3.07
2019-04-05T00:57:44.817Z,-3.09
2019-04-05T01:03:24.478Z,-3.06
2019-04-05T01:05:50.804Z,-3.11
2019-04-05T01:10:56.642Z,-3.12
2019-04-05T01:14:04.203Z,-3.17
2019-04-05T01:16:30.448Z,-3.20
2019-04-05T01:18:56.706Z,-3.26
2019-04-05T01:27:35.676Z,-3.35
2019-04-05T01:30:13.895Z,-3.30
2019-04-05T01:32:40.132Z,-3.38
2019-04-05T01:35:06.404Z,-3.46
2019-04-05T01:37:32.632Z,-3.50
2019-04-05T01:39:59.182Z,-3.54
2019-04-05T01:42:25.726Z,-3.51
2019-04-05T01:45:33.285Z,-3.44
2019-04-05T01:47:59.517Z,-3.46
2019-04-05T01:51:07.076Z,-3.39
2019-04-05T01:53:33.321Z,-3.41
2019-04-05T01:55:59.595Z,-3.32
2019-04-05T01:58:25.831Z,-3.32
2019-04-05T02:00:52.060Z,-3.39
2019-04-05T02:03:18.335Z,-3.44
2019-04-05T02:05:44.585Z,-3.33
2019-04-05T02:08:10.830Z,-3.37
2019-04-05T02:10:37.184Z,-3.36
2019-04-05T02:16:52.092Z,-3.46
2019-04-05T02:19:18.328Z,-3.44
2019-04-05T02:21:44.631Z,-3.34
2019-04-05T02:24:10.874Z,-3.35
2019-04-05T02:26:37.119Z,-3.31
2019-04-05T02:29:03.349Z,-3.31
2019-04-05T02:31:29.594Z,-3.34
2019-04-05T02:33:55.827Z,-3.29
2019-04-05T02:36:22.075Z,-3.32
2019-04-05T02:38:48.317Z,-3.33
2019-04-05T02:41:55.881Z,-3.35
2019-04-05T02:44:22.428Z,-3.36
2019-04-05T02:50:30.598Z,-3.37
2019-04-05T02:53:38.149Z,-3.40
2019-04-05T02:56:45.703Z,-3.43
2019-04-05T03:05:26.232Z,-3.50
2019-04-05T03:07:52.484Z,-3.44
2019-04-05T03:10:58.227Z,-3.41
2019-04-05T03:14:05.788Z,-3.46
2019-04-05T03:19:54.338Z,-3.45
2019-04-05T03:23:01.915Z,-3.49
2019-04-05T03:25:28.244Z,-3.52
2019-04-05T03:27:54.519Z,-3.53
2019-04-05T03:36:22.416Z,-3.81
2019-04-05T03:38:48.641Z,-3.60
2019-04-05T03:41:36.436Z,-3.66
2019-04-05T03:44:02.884Z,-3.65
2019-04-05T03:46:29.108Z,-3.62
2019-04-05T03:48:55.353Z,-3.66
2019-04-05T03:54:35.007Z,-3.57
2019-04-05T03:57:01.250Z,-3.55
2019-04-05T03:59:27.610Z,-3.60
2019-04-05T04:01:53.851Z,-3.63
2019-04-05T04:04:20.105Z,-3.62
2019-04-05T04:06:46.345Z,-3.62
2019-04-05T04:09:12.585Z,-3.70
2019-04-05T04:11:38.838Z,-3.60
2019-04-05T04:14:46.385Z,-3.57
2019-04-05T04:22:48.553Z,-3.34
2019-04-05T04:25:14.537Z,-3.31
2019-04-05T04:27:40.768Z,-3.28
2019-04-05T04:30:48.320Z,-3.27
2019-04-05T04:36:27.675Z,-3.10
2019-04-05T04:42:07.785Z,-3.07
2019-04-05T04:44:34.216Z,-2.99
2019-04-05T04:47:00.465Z,-2.88
2019-04-05T04:49:26.842Z,-2.80
2019-04-05T04:52:34.392Z,-2.70
2019-04-05T04:55:00.643Z,-2.58
2019-04-05T04:57:26.991Z,-2.33
2019-04-05T04:59:53.449Z,-2.16
2019-04-05T05:02:19.785Z,-2.04
2019-04-05T05:04:46.250Z,-1.86
2019-04-05T05:07:12.592Z,-1.77
2019-04-05T05:09:39.138Z,-1.65
2019-04-05T05:12:46.691Z,-1.49
2019-04-05T05:18:26.180Z,-1.27
2019-04-05T05:20:52.416Z,-1.13
2019-04-05T05:23:18.728Z,-0.88
2019-04-05T05:25:46.896Z,-0.89
2019-04-05T05:30:48.164Z,-1.00
2019-04-05T05:33:14.514Z,-1.04
2019-04-05T05:35:41.052Z,-0.98
2019-04-05T05:38:07.325Z,-0.98
2019-04-05T05:40:35.129Z,-1.16
2019-04-05T05:43:01.747Z,-1.13
2019-04-05T05:45:27.996Z,-1.07
2019-04-05T05:47:54.358Z,-1.02
2019-04-05T05:50:20.593Z,-0.79
2019-04-05T05:55:40.705Z,-0.55
2019-04-05T05:58:07.917Z,-1.26
2019-04-05T06:00:34.166Z,-0.75
2019-04-05T06:03:00.454Z,-0.83
2019-04-05T06:05:26.705Z,-0.78
2019-04-05T06:07:52.953Z,-0.95
2019-04-05T06:10:19.198Z,-0.98
2019-04-05T06:12:45.445Z,-1.03
2019-04-05T06:15:11.792Z,-0.98
2019-04-05T06:17:38.027Z,-1.13
2019-04-05T06:20:25.838Z,-1.07
2019-04-05T06:22:52.103Z,-1.07
2019-04-05T06:25:18.395Z,-0.93
2019-04-05T06:27:44.620Z,-0.97
2019-04-05T06:30:10.979Z,-1.05
2019-04-05T06:32:37.204Z,-1.05
2019-04-05T06:35:23.199Z,-1.01
2019-04-05T06:37:49.449Z,-0.96
2019-04-05T06:40:15.699Z,-0.85
2019-04-05T06:42:42.043Z,-0.73
2019-04-05T06:45:08.399Z,-0.75
2019-04-05T06:47:34.662Z,-0.89
2019-04-05T06:50:00.921Z,-0.91
2019-04-05T06:52:27.168Z,-0.88
2019-04-05T06:54:53.425Z,-0.88
2019-04-05T06:57:19.706Z,-0.90
2019-04-05T06:59:45.961Z,-0.91
2019-04-05T07:02:12.202Z,-0.92
2019-04-05T07:04:38.483Z,-0.89
2019-04-05T07:07:04.748Z,-0.79
2019-04-05T07:09:33.850Z,-0.68
2019-04-05T07:14:29.180Z,-0.72
2019-04-05T07:16:55.419Z,-0.67
2019-04-05T07:19:21.666Z,-0.64
2019-04-05T07:21:47.936Z,-0.64
2019-04-05T07:24:14.183Z,-0.59
2019-04-05T07:26:40.442Z,-0.55
2019-04-05T07:29:06.673Z,-0.54
2019-04-05T07:31:32.935Z,-0.40
2019-04-05T07:33:59.173Z,-0.40
2019-04-05T07:36:25.434Z,-0.35
2019-04-05T07:38:51.732Z,-0.16
2019-04-05T07:41:18.030Z,-0.01
2019-04-05T07:43:44.561Z,0.02
2019-04-05T07:46:10.819Z,-0.08
2019-04-05T07:48:44.619Z,-0.08
2019-04-05T07:51:05.241Z,-0.03
2019-04-05T07:53:31.476Z,0.23
2019-04-05T07:55:57.732Z,0.19
2019-04-05T07:58:23.977Z,0.35
2019-04-05T08:01:31.653Z,0.23
2019-04-05T08:03:58.302Z,0.20
2019-04-05T08:07:07.364Z,0.33
2019-04-05T08:13:09.183Z,0.19
2019-04-05T08:15:35.417Z,0.44
2019-04-05T08:18:01.781Z,0.31
2019-04-05T08:20:28.035Z,0.40
2019-04-05T08:22:54.289Z,0.54
2019-04-05T08:25:20.551Z,0.59
2019-04-05T08:27:46.910Z,0.46
2019-04-05T08:30:13.278Z,0.44
2019-04-05T08:32:39.515Z,0.42
2019-04-05T08:35:05.761Z,0.51
2019-04-05T08:37:32.014Z,0.68
2019-04-05T08:39:58.249Z,0.72
2019-04-05T08:42:24.494Z,0.31
2019-04-05T08:44:50.736Z,0.38
2019-04-05T08:47:16.987Z,0.53
2019-04-05T08:49:43.216Z,0.57
2019-04-05T08:52:09.452Z,0.86
2019-04-05T08:54:36.956Z,1.05
2019-04-05T08:57:03.972Z,1.18
2019-04-05T08:59:30.220Z,1.02
2019-04-05T09:01:56.465Z,0.88
2019-04-05T09:04:22.719Z,0.86
2019-04-05T09:06:48.964Z,0.90
2019-04-05T09:09:15.234Z,0.85
2019-04-05T09:11:41.460Z,0.85
2019-04-05T09:14:07.703Z,0.66
2019-04-05T09:16:33.946Z,0.64
2019-04-05T09:19:00.209Z,0.60
2019-04-05T09:21:26.470Z,0.61
2019-04-05T09:23:52.740Z,0.46
2019-04-05T09:26:19.016Z,0.50
2019-04-05T09:28:45.275Z,0.48
2019-04-05T09:31:11.509Z,0.58
2019-04-05T09:33:37.764Z,0.59
2019-04-05T09:36:04.000Z,0.68
2019-04-05T09:38:30.248Z,0.60
2019-04-05T09:40:56.488Z,0.57
2019-04-05T09:43:22.722Z,0.53
2019-04-05T09:45:48.968Z,0.46
2019-04-05T09:48:15.205Z,0.43
2019-04-05T09:50:41.470Z,0.44
2019-04-05T09:53:07.705Z,0.62
2019-04-05T09:55:33.964Z,0.62
2019-04-05T09:58:00.308Z,0.68
2019-04-05T10:03:06.132Z,0.83
2019-04-05T10:05:32.585Z,1.10
2019-04-05T10:07:58.824Z,1.16
2019-04-05T10:10:25.087Z,1.30
2019-04-05T10:12:51.308Z,1.43
2019-04-05T10:15:17.583Z,1.36
2019-04-05T10:17:43.803Z,1.34
2019-04-05T10:20:51.362Z,1.06
2019-04-05T10:23:17.595Z,1.06
2019-04-05T10:25:44.254Z,1.23
2019-04-05T10:28:12.068Z,1.12
2019-04-05T10:30:38.332Z,1.04
2019-04-05T10:33:04.581Z,1.15
2019-04-05T10:35:30.832Z,1.03
2019-04-05T10:37:58.437Z,1.04
2019-04-05T10:40:25.225Z,1.16
2019-04-05T10:42:51.461Z,1.21
2019-04-05T10:45:18.209Z,1.31
2019-04-05T10:50:51.839Z,1.20
2019-04-05T10:53:18.071Z,1.18
2019-04-05T10:55:44.314Z,-0.35
2019-04-05T10:58:10.567Z,1.18
2019-04-05T11:03:30.374Z,1.25
2019-04-05T11:05:56.617Z,1.15
2019-04-05T11:08:22.868Z,1.10
2019-04-05T11:10:49.109Z,1.03
2019-04-05T11:13:15.358Z,1.16
2019-04-05T11:15:41.595Z,1.20
2019-04-05T11:18:27.598Z,1.24
2019-04-05T11:20:53.851Z,1.29
2019-04-05T11:26:14.142Z,1.23
2019-04-05T11:28:40.385Z,1.22
2019-04-05T11:31:06.650Z,1.19
2019-04-05T11:33:32.884Z,1.08
2019-04-05T11:35:59.220Z,1.08
2019-04-05T11:39:07.082Z,1.08
2019-04-05T11:47:57.751Z,1.20
2019-04-05T11:50:34.600Z,1.28
2019-04-05T11:52:52.678Z,1.44
2019-04-05T11:55:18.988Z,1.27
2019-04-05T11:57:45.283Z,1.28
2019-04-05T12:03:38.738Z,1.33
2019-04-05T12:06:04.999Z,1.19
2019-04-05T12:08:31.246Z,1.12
2019-04-05T12:10:57.490Z,1.03
2019-04-05T12:13:23.739Z,1.09
2019-04-05T12:15:49.976Z,1.16
2019-04-05T12:18:19.435Z,1.00
2019-04-05T12:20:50.942Z,1.26
2019-04-05T12:23:12.543Z,1.28
2019-04-05T12:25:38.806Z,1.42
2019-04-05T12:28:06.872Z,1.51
2019-04-05T12:30:33.234Z,1.65
2019-04-05T12:33:12.772Z,1.49
2019-04-05T12:35:27.663Z,1.53
2019-04-05T12:37:55.777Z,1.39
2019-04-05T12:40:22.074Z,1.36
2019-04-05T12:43:08.076Z,1.50
2019-04-05T12:45:34.325Z,1.33
2019-04-05T12:48:00.557Z,1.48
2019-04-05T12:50:27.002Z,1.68
2019-04-05T12:52:54.726Z,1.67
2019-04-05T12:55:23.838Z,1.70
2019-04-05T12:57:49.552Z,1.61
2019-04-05T13:00:57.106Z,1.60
2019-04-05T13:03:23.332Z,1.52
2019-04-05T13:05:51.575Z,1.43
2019-04-05T13:08:17.736Z,1.34
2019-04-05T13:10:44.021Z,1.32
2019-04-05T13:13:10.247Z,1.34
2019-04-05T13:15:36.494Z,1.34
2019-04-05T13:18:02.743Z,1.27
2019-04-05T13:20:30.442Z,1.17
2019-04-05T13:22:57.142Z,1.10
2019-04-05T13:25:23.392Z,1.03
2019-04-05T13:27:49.669Z,1.02
2019-04-05T13:30:18.382Z,1.07
2019-04-05T13:32:44.158Z,0.96
2019-04-05T13:35:10.804Z,0.98
2019-04-05T13:37:37.057Z,0.94
2019-04-05T13:40:44.602Z,1.00
2019-04-05T13:43:10.863Z,1.00
2019-04-05T13:45:37.102Z,0.97
2019-04-05T13:48:03.366Z,0.97
2019-04-05T13:50:29.606Z,0.97
2019-04-05T13:52:55.856Z,0.87
2019-04-05T13:55:22.097Z,0.82
2019-04-05T13:57:48.345Z,0.78
2019-04-05T14:00:17.452Z,0.70
2019-04-05T14:02:42.936Z,0.64
2019-04-05T14:08:09.772Z,0.66
2019-04-05T14:10:29.427Z,0.70
2019-04-05T14:12:55.680Z,0.76
2019-04-05T14:15:21.922Z,0.77
2019-04-05T14:17:49.356Z,0.76
2019-04-05T14:20:19.644Z,0.74
2019-04-05T14:25:20.988Z,0.64
2019-04-05T14:27:47.272Z,0.67
2019-04-05T14:30:13.891Z,0.69
2019-04-05T14:32:40.123Z,0.67
2019-04-05T14:35:07.920Z,0.67
2019-04-05T14:37:34.931Z,0.64
2019-04-05T14:40:01.186Z,0.63
2019-04-05T14:42:29.711Z,0.57
2019-04-05T14:44:56.052Z,0.56
2019-04-05T14:47:22.484Z,0.50
2019-04-05T14:49:48.747Z,0.50
2019-04-05T14:52:15.120Z,0.50
2019-04-05T14:54:43.252Z,0.47
2019-04-05T14:57:09.554Z,0.44
2019-04-05T14:59:35.816Z,0.43
2019-04-05T15:02:02.160Z,0.47
2019-04-05T15:04:28.415Z,0.43
2019-04-05T15:06:54.678Z,0.43
2019-04-05T15:09:24.854Z,0.43
2019-04-05T15:11:49.156Z,0.41
2019-04-05T15:14:15.411Z,0.45
2019-04-05T15:16:41.644Z,0.46
2019-04-05T15:19:07.928Z,0.38
2019-04-05T15:21:34.876Z,0.37
2019-04-05T15:24:02.445Z,0.37
2019-04-05T15:26:28.681Z,0.40
2019-04-05T15:28:55.737Z,0.37
2019-04-05T15:31:25.857Z,0.34
2019-04-05T15:33:51.238Z,0.34
2019-04-05T15:36:17.484Z,0.34
2019-04-05T15:38:43.734Z,0.36
2019-04-05T15:41:09.992Z,0.34
2019-04-05T15:43:36.528Z,0.33
2019-04-05T15:46:02.876Z,0.33
2019-04-05T15:48:29.113Z,0.33
2019-04-05T15:50:57.799Z,0.34
2019-04-05T15:56:33.260Z,0.32
2019-04-05T15:58:59.073Z,0.31
2019-04-05T16:01:25.320Z,0.32
2019-04-05T16:03:51.556Z,0.33
2019-04-05T16:06:17.812Z,0.33
2019-04-05T16:08:44.046Z,0.32
2019-04-05T16:11:10.301Z,0.31
2019-04-05T16:13:36.535Z,0.32
2019-04-05T16:16:02.898Z,0.34
2019-04-05T16:18:29.142Z,0.34
2019-04-05T16:20:55.416Z,0.32
2019-04-05T16:23:21.653Z,0.30
2019-04-05T16:25:47.966Z,0.29
2019-04-05T16:28:14.244Z,0.20
2019-04-05T16:30:40.524Z,0.29
2019-04-05T16:33:06.766Z,0.29
2019-04-05T16:35:33.010Z,0.30
2019-04-05T16:37:59.265Z,0.29
2019-04-05T16:40:25.508Z,0.30
2019-04-05T16:43:01.699Z,0.27
2019-04-05T16:45:20.329Z,0.29
2019-04-05T16:47:46.580Z,0.31
2019-04-05T16:50:13.129Z,0.29
2019-04-05T16:52:45.177Z,0.29
2019-04-05T16:55:07.656Z,0.31
2019-04-05T16:57:33.925Z,0.32
2019-04-05T17:00:00.161Z,0.33
2019-04-05T17:02:26.416Z,0.32
2019-04-05T17:04:52.658Z,0.32
2019-04-05T17:07:18.927Z,0.31
2019-04-05T17:09:45.152Z,0.32
2019-04-05T17:12:11.405Z,0.30
2019-04-05T17:14:37.656Z,0.29
2019-04-05T17:17:03.922Z,0.28
2019-04-05T17:20:11.482Z,0.31
2019-04-05T17:22:37.746Z,0.29
2019-04-05T17:25:45.303Z,0.29
2019-04-05T17:28:11.586Z,0.30
2019-04-05T17:30:37.821Z,0.32
2019-04-05T17:33:04.080Z,0.31
2019-04-05T17:35:30.325Z,0.32
2019-04-05T17:37:56.610Z,0.32
2019-04-05T17:40:22.843Z,0.35
2019-04-05T17:42:49.116Z,0.35
2019-04-05T17:45:15.361Z,0.38
2019-04-05T17:47:41.606Z,0.40
2019-04-05T17:50:30.345Z,0.42
2019-04-05T17:52:56.701Z,0.43
2019-04-05T17:55:22.937Z,0.42
2019-04-05T17:57:49.265Z,0.43
2019-04-05T18:02:53.042Z,0.45
2019-04-05T18:05:19.322Z,0.47
2019-04-05T18:07:45.555Z,0.46
2019-04-05T18:10:11.828Z,0.48
2019-04-05T18:12:38.060Z,0.48
2019-04-05T18:15:04.517Z,0.48
2019-04-05T18:17:30.763Z,0.48
2019-04-05T18:19:57.020Z,0.48
2019-04-05T18:22:23.250Z,0.48
2019-04-05T18:24:49.543Z,0.49
2019-04-05T18:27:15.736Z,0.49
2019-04-05T18:29:42.057Z,0.50
2019-04-05T18:32:08.294Z,0.49
2019-04-05T18:34:34.555Z,0.49
2019-04-05T18:37:00.810Z,0.53
2019-04-05T18:39:27.067Z,0.53
2019-04-05T18:41:53.333Z,0.53
2019-04-05T18:44:19.585Z,0.53
2019-04-05T18:46:45.843Z,0.55
2019-04-05T18:49:12.079Z,-0.71
2019-04-05T18:51:38.380Z,0.58
2019-04-05T18:54:04.591Z,0.58
2019-04-05T18:56:30.841Z,0.58
2019-04-05T18:58:57.082Z,0.60
2019-04-05T19:01:23.327Z,0.61
2019-04-05T19:03:49.789Z,0.62
2019-04-05T19:06:16.073Z,0.61
2019-04-05T19:08:42.332Z,0.61
2019-04-05T19:11:08.590Z,0.63
2019-04-05T19:13:34.863Z,0.63
2019-04-05T19:16:01.083Z,0.65
2019-04-05T19:18:27.431Z,0.64
2019-04-05T19:20:53.698Z,0.65
2019-04-05T19:23:19.950Z,0.66
2019-04-05T19:25:46.656Z,0.69
2019-04-05T19:28:12.996Z,0.69
2019-04-05T19:50:24.875Z,0.45
2019-04-05T19:52:51.140Z,0.75
2019-04-05T19:55:17.401Z,0.75
2019-04-05T19:57:43.653Z,0.78
2019-04-05T20:03:06.715Z,0.83
2019-04-05T20:05:32.971Z,0.83
2019-04-05T20:07:59.215Z,0.53
2019-04-05T20:10:25.452Z,0.84
2019-04-05T20:12:51.743Z,0.86
2019-04-05T20:15:17.946Z,0.86
2019-04-05T20:17:44.200Z,0.89
2019-04-05T20:20:31.994Z,0.92
2019-04-05T20:22:58.242Z,0.91
2019-04-05T20:25:24.503Z,0.94
2019-04-05T20:27:50.774Z,0.95
2019-04-05T20:30:17.041Z,0.98
2019-04-05T20:32:43.305Z,0.98
2019-04-05T20:35:09.537Z,1.02
2019-04-05T20:37:35.786Z,1.01
2019-04-05T20:43:15.811Z,1.00
2019-04-05T20:45:42.044Z,1.01
2019-04-05T20:48:08.292Z,1.01
2019-04-05T20:50:34.534Z,1.01
2019-04-05T20:53:00.798Z,1.01
2019-04-05T20:55:27.041Z,1.03
2019-04-05T20:57:53.310Z,1.02
2019-04-05T21:00:19.546Z,1.01
2019-04-05T21:02:45.799Z,1.02
2019-04-05T21:05:12.063Z,1.03
2019-04-05T21:07:38.464Z,1.02
2019-04-05T21:10:26.297Z,1.03
2019-04-05T21:12:52.531Z,1.04
2019-04-05T21:15:18.775Z,1.04
2019-04-05T21:17:45.046Z,1.07
2019-04-05T21:20:11.506Z,1.09
2019-04-05T21:22:37.740Z,1.11
2019-04-05T21:25:25.911Z,1.12
2019-04-05T21:27:52.316Z,1.14
2019-04-05T21:30:18.571Z,1.15
2019-04-05T21:32:44.827Z,1.15
2019-04-05T21:35:11.074Z,1.15
2019-04-05T21:40:37.810Z,1.18
2019-04-05T21:43:04.447Z,1.19
2019-04-05T21:45:30.761Z,1.19
2019-04-05T21:47:57.084Z,1.22
2019-04-05T21:50:23.355Z,1.23
2019-04-05T21:52:49.597Z,1.25
2019-04-05T21:55:15.847Z,1.26
2019-04-05T21:57:42.084Z,1.28
2019-04-05T22:00:49.629Z,1.29
2019-04-05T22:03:15.884Z,1.31
2019-04-05T22:05:42.136Z,1.31
2019-04-05T22:08:08.373Z,1.31
2019-04-05T22:10:34.628Z,1.33
2019-04-05T22:13:01.475Z,1.32
2019-04-05T22:15:27.810Z,1.31
2019-04-05T22:17:54.432Z,1.32
2019-04-05T22:20:20.921Z,1.32
2019-04-05T22:22:47.162Z,1.32
2019-04-05T22:25:13.416Z,1.32
2019-04-05T22:27:39.664Z,1.30
2019-04-05T22:30:47.242Z,1.28
2019-04-05T22:33:13.491Z,1.30
2019-04-05T22:35:39.754Z,1.27
2019-04-05T22:38:06.037Z,1.27
2019-04-05T22:40:32.254Z,1.26
2019-04-05T22:42:58.504Z,1.24
2019-04-05T22:45:24.770Z,1.23
2019-04-05T22:47:51.029Z,1.22
2019-04-05T22:50:17.285Z,1.22
2019-04-05T22:52:43.516Z,1.19
2019-04-05T22:55:11.417Z,1.17
2019-04-05T22:57:37.929Z,1.18
2019-04-05T23:00:45.478Z,1.16
2019-04-05T23:03:11.708Z,1.13
2019-04-05T23:05:37.958Z,1.12
2019-04-05T23:08:04.215Z,1.11
2019-04-05T23:10:30.494Z,1.08
2019-04-05T23:12:56.757Z,1.03
2019-04-05T23:15:22.998Z,0.99
2019-04-05T23:17:49.247Z,0.97
2019-04-05T23:20:15.593Z,0.93
2019-04-05T23:22:41.840Z,0.89
2019-04-05T23:25:08.184Z,0.85
2019-04-05T23:27:34.437Z,0.81
2019-04-05T23:30:22.260Z,0.75
2019-04-05T23:32:48.518Z,0.71
2019-04-05T23:35:14.761Z,0.68
2019-04-05T23:37:41.024Z,0.62
2019-04-05T23:40:07.378Z,0.55
2019-04-05T23:42:33.640Z,0.51
2019-04-05T23:44:59.885Z,0.47
2019-04-05T23:47:26.138Z,0.43
2019-04-05T23:49:52.375Z,0.37
2019-04-05T23:52:18.624Z,0.33
2019-04-05T23:54:44.853Z,0.29
2019-04-05T23:57:11.124Z,0.23
2019-04-05T23:59:37.360Z,0.19
